createdAt,value
2023-03-15T05:23:37.064Z,96.30
2023-03-15T05:28:40.529Z,96.06
2023-03-15T05:33:47.193Z,96.13
2023-03-15T05:38:49.001Z,95.71
2023-03-15T05:43:54.384Z,95.53
2023-03-15T05:48:56.344Z,95.48
2023-03-15T05:53:57.936Z,95.18
2023-03-15T05:59:02.992Z,94.25
2023-03-15T06:04:04.937Z,93.82
2023-03-15T06:09:06.563Z,92.29
2023-03-15T06:14:14.362Z,90.91
2023-03-15T06:19:19.055Z,87.73
2023-03-15T06:24:21.172Z,86.08
2023-03-15T06:29:23.629Z,83.48
2023-03-15T06:34:25.137Z,80.18
2023-03-15T06:39:27.212Z,73.87
2023-03-15T06:44:29.588Z,67.28
2023-03-15T06:49:32.914Z,63.97
2023-03-15T06:54:35.407Z,62.02
2023-03-15T06:59:36.916Z,63.43
2023-03-15T07:04:38.558Z,59.32
2023-03-15T07:09:41.805Z,54.42
2023-03-15T07:14:43.303Z,50.05
2023-03-15T07:19:55.707Z,46.81
2023-03-15T07:24:57.532Z,48.64
2023-03-15T07:29:59.122Z,46.62
2023-03-15T07:35:00.783Z,48.39
2023-03-15T07:40:09.834Z,47.85
2023-03-15T07:45:11.662Z,46.94
2023-03-15T07:50:14.592Z,47.82
2023-03-15T07:55:17.948Z,50.41
2023-03-15T08:00:19.942Z,51.26
2023-03-15T08:05:22.123Z,50.81
2023-03-15T08:10:23.665Z,51.97
2023-03-15T08:15:25.111Z,50.23
2023-03-15T08:20:29.704Z,50.32
2023-03-15T08:25:31.747Z,50.89
2023-03-15T08:30:33.240Z,50.84
2023-03-15T08:35:34.988Z,49.65
2023-03-15T08:40:38.288Z,48.10
2023-03-15T08:45:59.515Z,45.65
2023-03-15T08:51:04.077Z,46.17
2023-03-15T08:56:06.179Z,44.52
2023-03-15T09:01:07.700Z,46.63
2023-03-15T09:06:09.720Z,46.58
2023-03-15T09:11:11.713Z,46.33
2023-03-15T09:16:13.748Z,43.77
2023-03-15T09:21:15.193Z,42.56
2023-03-15T09:26:16.598Z,41.25
2023-03-15T09:31:18.122Z,42.86
2023-03-15T09:36:19.599Z,43.16
2023-03-15T09:41:30.872Z,44.23
2023-03-15T09:46:42.713Z,44.91
2023-03-15T09:51:57.213Z,43.89
2023-03-15T09:57:04.509Z,43.74
2023-03-15T10:02:21.738Z,42.43
2023-03-15T10:07:23.265Z,41.17
2023-03-15T10:12:41.385Z,41.47
2023-03-15T10:18:01.822Z,40.82
2023-03-15T10:23:05.372Z,41.19
2023-03-15T10:28:15.985Z,42.91
2023-03-15T10:33:32.115Z,43.47
2023-03-15T10:38:33.537Z,43.93
2023-03-15T10:43:37.324Z,45.56
2023-03-15T10:49:00.020Z,46.34
2023-03-15T10:54:07.184Z,47.11
2023-03-15T10:59:17.516Z,46.83
2023-03-15T11:04:27.369Z,46.17
2023-03-15T11:09:39.907Z,45.23
2023-03-15T11:14:48.173Z,45.62
2023-03-15T11:20:12.968Z,46.76
2023-03-15T11:25:16.598Z,48.24
2023-03-15T11:30:21.625Z,49.85
2023-03-15T11:35:28.629Z,51.34
2023-03-15T11:40:34.720Z,51.76
2023-03-15T11:45:51.185Z,55.43
2023-03-15T11:50:57.440Z,58.77
2023-03-15T11:56:20.238Z,60.47
2023-03-15T12:01:26.549Z,62.33
2023-03-15T12:06:37.550Z,63.56
2023-03-15T12:11:40.882Z,62.70
2023-03-15T12:16:45.379Z,64.01
2023-03-15T12:21:49.572Z,65.50
2023-03-15T12:27:01.072Z,66.05
2023-03-15T12:32:02.438Z,65.04
2023-03-15T12:37:14.502Z,67.08
2023-03-15T12:42:31.394Z,67.45
2023-03-15T12:47:49.670Z,66.99
2023-03-15T12:52:53.626Z,66.22
2023-03-15T12:57:57.918Z,66.70
2023-03-15T13:03:06.104Z,65.65
2023-03-15T13:08:22.761Z,64.80
2023-03-15T13:13:36.096Z,63.04
2023-03-15T13:19:05.467Z,63.32
2023-03-15T13:24:17.075Z,61.96
2023-03-15T13:29:26.477Z,62.38
2023-03-15T13:34:31.167Z,59.96
2023-03-15T13:39:34.423Z,61.22
2023-03-15T13:44:35.921Z,60.24
2023-03-15T13:49:37.426Z,63.14
2023-03-15T13:54:40.270Z,65.74
2023-03-15T13:59:48.903Z,67.99
2023-03-15T14:05:05.275Z,69.06
2023-03-15T14:10:34.426Z,69.51
2023-03-15T14:15:37.571Z,71.14
2023-03-15T14:20:45.404Z,70.84
2023-03-15T14:26:04.574Z,71.53
2023-03-15T14:31:06.731Z,70.91
2023-03-15T14:36:23.098Z,73.01
2023-03-15T14:41:27.551Z,73.12
2023-03-15T14:46:31.385Z,73.17
2023-03-15T14:51:33.235Z,73.72
2023-03-15T14:56:36.868Z,74.32
2023-03-15T15:01:40.647Z,75.15
2023-03-15T15:06:50.901Z,74.91
2023-03-15T15:11:53.353Z,76.18
2023-03-15T15:16:54.926Z,76.18
2023-03-15T15:21:57.510Z,76.26
2023-03-15T15:26:58.919Z,75.23
2023-03-15T15:32:00.612Z,76.34
2023-03-15T15:37:02.232Z,76.26
2023-03-15T15:42:03.902Z,76.80
2023-03-15T15:47:05.754Z,77.29
2023-03-15T15:52:12.201Z,77.52
2023-03-15T15:57:14.414Z,77.51
2023-03-15T16:02:22.090Z,76.57
2023-03-15T16:07:24.924Z,76.40
2023-03-15T16:12:28.341Z,77.03
2023-03-15T16:17:29.862Z,77.35
2023-03-15T16:22:31.792Z,76.79
2023-03-15T16:27:33.262Z,77.34
2023-03-15T16:32:43.962Z,78.30
2023-03-15T16:37:46.590Z,78.03
2023-03-15T16:42:49.380Z,78.66
2023-03-15T16:47:51.597Z,78.88
2023-03-15T16:52:56.013Z,79.52
2023-03-15T16:57:57.591Z,78.62
2023-03-15T17:03:00.090Z,78.39
2023-03-15T17:08:01.770Z,78.15
2023-03-15T17:13:03.682Z,77.85
2023-03-15T17:18:19.915Z,78.72
2023-03-15T17:23:21.871Z,78.96
2023-03-15T17:28:23.398Z,78.68
2023-03-15T17:33:25.951Z,79.19
2023-03-15T17:38:32.615Z,79.96
2023-03-15T17:43:34.052Z,80.83
2023-03-15T17:48:35.548Z,80.87
2023-03-15T17:53:37.024Z,81.34
2023-03-15T17:58:38.557Z,82.05
2023-03-15T18:03:41.197Z,81.44
2023-03-15T18:08:43.654Z,82.34
2023-03-15T18:13:45.139Z,82.45
2023-03-15T18:18:46.611Z,83.09
2023-03-15T18:23:49.705Z,84.44
2023-03-15T18:28:51.528Z,86.11
2023-03-15T18:33:53.803Z,86.13
2023-03-15T18:38:55.534Z,85.51
2023-03-15T18:43:58.280Z,85.53
2023-03-15T18:48:59.708Z,85.33
2023-03-15T18:54:01.125Z,85.48
2023-03-15T18:59:03.540Z,85.77
2023-03-15T19:04:04.970Z,85.72
2023-03-15T19:09:06.518Z,86.97
2023-03-15T19:14:08.723Z,86.64
2023-03-15T19:19:11.099Z,86.69
2023-03-15T19:24:12.836Z,86.55
2023-03-15T19:29:14.558Z,86.63
2023-03-15T19:34:16.030Z,86.63
2023-03-15T19:39:17.988Z,86.64
2023-03-15T19:44:19.459Z,87.25
2023-03-15T19:49:21.020Z,88.20
2023-03-15T19:54:22.539Z,87.61
2023-03-15T19:59:24.910Z,88.05
2023-03-15T20:04:27.396Z,88.95
2023-03-15T20:09:29.368Z,88.51
2023-03-15T20:14:30.838Z,88.87
2023-03-15T20:19:32.445Z,88.53
2023-03-15T20:24:34.062Z,88.94
2023-03-15T20:29:35.597Z,89.78
2023-03-15T20:34:37.401Z,89.42
2023-03-15T20:39:38.912Z,90.06
2023-03-15T20:44:42.233Z,91.17
2023-03-15T20:49:43.734Z,91.81
2023-03-15T20:54:45.160Z,93.04
2023-03-15T20:59:47.014Z,92.61
2023-03-15T21:04:48.476Z,92.62
2023-03-15T21:09:49.963Z,92.96
2023-03-15T21:14:51.919Z,94.37
2023-03-15T21:19:54.008Z,92.98
2023-03-15T21:24:56.508Z,93.60
2023-03-15T21:29:58.530Z,92.83
2023-03-15T21:34:59.975Z,92.69
2023-03-15T21:40:01.659Z,92.24
2023-03-15T21:45:03.207Z,92.13
2023-03-15T21:50:05.205Z,92.32
2023-03-15T21:55:08.137Z,93.40
2023-03-15T22:00:12.065Z,93.11
2023-03-15T22:05:13.737Z,94.39
2023-03-15T22:10:15.557Z,93.43
2023-03-15T22:15:17.161Z,93.86
2023-03-15T22:20:18.787Z,93.86
2023-03-15T22:25:20.479Z,93.41
2023-03-15T22:30:21.991Z,93.27
2023-03-15T22:35:23.798Z,93.34
2023-03-15T22:40:27.653Z,95.17
2023-03-15T22:45:29.291Z,96.29
2023-03-15T22:50:31.120Z,96.25
2023-03-15T22:55:32.577Z,95.91
2023-03-15T23:00:34.068Z,94.99
2023-03-15T23:05:35.660Z,94.16
2023-03-15T23:10:37.227Z,92.99
2023-03-15T23:15:38.800Z,93.63
2023-03-15T23:20:41.523Z,93.38
2023-03-15T23:25:43.229Z,93.26
2023-03-15T23:30:45.837Z,93.18
2023-03-15T23:35:47.317Z,93.68
2023-03-15T23:41:01.610Z,92.45
2023-03-15T23:46:05.047Z,92.29
2023-03-15T23:51:06.534Z,92.90
2023-03-15T23:56:08.014Z,93.03
